sensor_id;sensor_type;location;lat;lon;timestamp;temperature;humidity
17938;DHT22;16051;53.024;8.630;2023-04-01T00:02:04;11.80;99.90
17938;DHT22;16051;53.024;8.630;2023-04-01T00:06:06;11.80;99.90
17938;DHT22;16051;53.024;8.630;2023-04-01T00:10:11;11.80;99.90
17938;DHT22;16051;53.024;8.630;2023-04-01T00:14:16;11.80;99.90
17938;DHT22;16051;53.024;8.630;2023-04-01T00:18:19;11.80;99.90
17938;DHT22;16051;53.024;8.630;2023-04-01T00:22:21;11.80;99.90
17938;DHT22;16051;53.024;8.630;2023-04-01T00:26:23;11.70;99.90
17938;DHT22;16051;53.024;8.630;2023-04-01T00:30:28;11.70;99.90
17938;DHT22;16051;53.024;8.630;2023-04-01T00:34:30;11.70;99.90
17938;DHT22;16051;53.024;8.630;2023-04-01T00:38:32;11.70;99.90
17938;DHT22;16051;53.024;8.630;2023-04-01T00:42:34;11.70;99.90
17938;DHT22;16051;53.024;8.630;2023-04-01T00:46:38;11.70;99.90
17938;DHT22;16051;53.024;8.630;2023-04-01T00:50:42;11.70;99.90
17938;DHT22;16051;53.024;8.630;2023-04-01T00:54:51;11.70;99.90
17938;DHT22;16051;53.024;8.630;2023-04-01T00:59:13;11.70;99.90
17938;DHT22;16051;53.024;8.630;2023-04-01T01:03:19;11.60;99.90
17938;DHT22;16051;53.024;8.630;2023-04-01T01:07:27;11.60;99.90
17938;DHT22;16051;53.024;8.630;2023-04-01T01:11:42;11.60;99.90
17938;DHT22;16051;53.024;8.630;2023-04-01T01:15:50;11.60;99.90
17938;DHT22;16051;53.024;8.630;2023-04-01T01:20:30;11.60;99.90
17938;DHT22;16051;53.024;8.630;2023-04-01T01:25:01;11.60;99.90
17938;DHT22;16051;53.024;8.630;2023-04-01T01:29:45;11.60;99.90
17938;DHT22;16051;53.024;8.630;2023-04-01T01:34:14;11.60;99.90
17938;DHT22;16051;53.024;8.630;2023-04-01T01:38:26;11.50;99.90
17938;DHT22;16051;53.024;8.630;2023-04-01T01:42:31;11.50;99.90
17938;DHT22;16051;53.024;8.630;2023-04-01T01:46:38;11.50;99.90
17938;DHT22;16051;53.024;8.630;2023-04-01T01:50:44;11.50;99.90
17938;DHT22;16051;53.024;8.630;2023-04-01T01:54:50;11.50;99.90
17938;DHT22;16051;53.024;8.630;2023-04-01T01:58:55;11.50;99.90
17938;DHT22;16051;53.024;8.630;2023-04-01T02:03:02;11.50;99.90
17938;DHT22;16051;53.024;8.630;2023-04-01T02:07:10;11.40;99.90
17938;DHT22;16051;53.024;8.630;2023-04-01T02:11:19;11.40;99.90
17938;DHT22;16051;53.024;8.630;2023-04-01T02:15:28;11.40;99.90
17938;DHT22;16051;53.024;8.630;2023-04-01T02:19:38;11.40;99.90
17938;DHT22;16051;53.024;8.630;2023-04-01T02:23:45;11.40;99.90
17938;DHT22;16051;53.024;8.630;2023-04-01T02:27:50;11.40;99.90
17938;DHT22;16051;53.024;8.630;2023-04-01T02:31:53;11.40;99.90
17938;DHT22;16051;53.024;8.630;2023-04-01T02:36:05;11.40;99.90
17938;DHT22;16051;53.024;8.630;2023-04-01T02:40:18;11.40;99.90
17938;DHT22;16051;53.024;8.630;2023-04-01T02:44:21;11.30;99.90
17938;DHT22;16051;53.024;8.630;2023-04-01T02:48:23;11.30;99.90
17938;DHT22;16051;53.024;8.630;2023-04-01T02:52:26;11.30;99.90
17938;DHT22;16051;53.024;8.630;2023-04-01T02:56:29;11.30;99.90
17938;DHT22;16051;53.024;8.630;2023-04-01T03:00:46;11.30;99.90
17938;DHT22;16051;53.024;8.630;2023-04-01T03:04:50;11.30;99.90
17938;DHT22;16051;53.024;8.630;2023-04-01T03:08:52;11.30;99.90
17938;DHT22;16051;53.024;8.630;2023-04-01T03:12:54;11.20;99.90
17938;DHT22;16051;53.024;8.630;2023-04-01T03:16:58;11.20;99.90
17938;DHT22;16051;53.024;8.630;2023-04-01T03:21:13;11.20;99.90
17938;DHT22;16051;53.024;8.630;2023-04-01T03:25:18;11.20;99.90
17938;DHT22;16051;53.024;8.630;2023-04-01T03:29:20;11.20;99.90
17938;DHT22;16051;53.024;8.630;2023-04-01T03:33:23;11.20;99.90
17938;DHT22;16051;53.024;8.630;2023-04-01T03:37:26;11.20;99.90
17938;DHT22;16051;53.024;8.630;2023-04-01T03:41:28;11.10;99.90
17938;DHT22;16051;53.024;8.630;2023-04-01T03:45:32;11.20;99.90
17938;DHT22;16051;53.024;8.630;2023-04-01T03:49:35;11.10;99.90
17938;DHT22;16051;53.024;8.630;2023-04-01T03:53:38;11.10;99.90
17938;DHT22;16051;53.024;8.630;2023-04-01T03:57:42;11.10;99.90
17938;DHT22;16051;53.024;8.630;2023-04-01T04:01:46;11.10;99.90
17938;DHT22;16051;53.024;8.630;2023-04-01T04:05:49;11.10;99.90
17938;DHT22;16051;53.024;8.630;2023-04-01T04:09:52;11.10;99.90
17938;DHT22;16051;53.024;8.630;2023-04-01T04:13:54;11.10;99.90
17938;DHT22;16051;53.024;8.630;2023-04-01T04:17:56;11.10;99.90
17938;DHT22;16051;53.024;8.630;2023-04-01T04:21:59;11.10;99.90
17938;DHT22;16051;53.024;8.630;2023-04-01T04:26:04;11.00;99.90
17938;DHT22;16051;53.024;8.630;2023-04-01T04:30:08;11.00;99.90
17938;DHT22;16051;53.024;8.630;2023-04-01T04:34:11;11.00;99.90
17938;DHT22;16051;53.024;8.630;2023-04-01T04:38:14;11.00;99.90
17938;DHT22;16051;53.024;8.630;2023-04-01T04:42:17;11.00;99.90
17938;DHT22;16051;53.024;8.630;2023-04-01T04:46:19;11.00;99.90
17938;DHT22;16051;53.024;8.630;2023-04-01T04:50:22;11.00;99.90
17938;DHT22;16051;53.024;8.630;2023-04-01T04:54:26;11.00;99.90
17938;DHT22;16051;53.024;8.630;2023-04-01T04:58:28;11.00;99.90
17938;DHT22;16051;53.024;8.630;2023-04-01T05:02:30;10.90;99.90
17938;DHT22;16051;53.024;8.630;2023-04-01T05:06:32;10.90;99.90
17938;DHT22;16051;53.024;8.630;2023-04-01T05:10:36;10.90;99.90
17938;DHT22;16051;53.024;8.630;2023-04-01T05:14:38;10.90;99.90
17938;DHT22;16051;53.024;8.630;2023-04-01T05:18:40;10.90;99.90
17938;DHT22;16051;53.024;8.630;2023-04-01T05:22:43;10.90;99.90
17938;DHT22;16051;53.024;8.630;2023-04-01T05:26:47;10.90;99.90
17938;DHT22;16051;53.024;8.630;2023-04-01T05:30:49;11.00;99.90
17938;DHT22;16051;53.024;8.630;2023-04-01T05:35:08;10.90;99.90
17938;DHT22;16051;53.024;8.630;2023-04-01T05:39:10;10.90;99.90
17938;DHT22;16051;53.024;8.630;2023-04-01T05:43:32;11.00;99.90
17938;DHT22;16051;53.024;8.630;2023-04-01T05:47:36;11.00;99.90
17938;DHT22;16051;53.024;8.630;2023-04-01T05:51:38;11.00;99.90
17938;DHT22;16051;53.024;8.630;2023-04-01T05:55:56;11.00;99.90
17938;DHT22;16051;53.024;8.630;2023-04-01T05:59:59;11.00;99.90
17938;DHT22;16051;53.024;8.630;2023-04-01T06:04:01;11.00;99.90
17938;DHT22;16051;53.024;8.630;2023-04-01T06:08:09;11.10;99.90
17938;DHT22;16051;53.024;8.630;2023-04-01T06:12:44;11.20;99.90
17938;DHT22;16051;53.024;8.630;2023-04-01T06:17:06;11.20;99.90
17938;DHT22;16051;53.024;8.630;2023-04-01T06:21:44;11.20;99.90
17938;DHT22;16051;53.024;8.630;2023-04-01T06:26:15;11.30;99.90
17938;DHT22;16051;53.024;8.630;2023-04-01T06:30:40;11.30;99.90
17938;DHT22;16051;53.024;8.630;2023-04-01T06:34:57;11.30;99.90
17938;DHT22;16051;53.024;8.630;2023-04-01T06:44:15;11.60;99.90
17938;DHT22;16051;53.024;8.630;2023-04-01T06:48:37;11.60;99.90
17938;DHT22;16051;53.024;8.630;2023-04-01T06:53:02;11.60;99.90
17938;DHT22;16051;53.024;8.630;2023-04-01T06:57:20;11.60;99.90
17938;DHT22;16051;53.024;8.630;2023-04-01T07:01:44;11.60;99.90
17938;DHT22;16051;53.024;8.630;2023-04-01T07:05:50;11.90;99.90
17938;DHT22;16051;53.024;8.630;2023-04-01T07:09:57;12.50;99.90
17938;DHT22;16051;53.024;8.630;2023-04-01T07:19:42;12.60;99.90
17938;DHT22;16051;53.024;8.630;2023-04-01T07:24:01;12.30;99.90
17938;DHT22;16051;53.024;8.630;2023-04-01T07:28:15;12.30;99.90
17938;DHT22;16051;53.024;8.630;2023-04-01T07:32:25;12.30;99.90
17938;DHT22;16051;53.024;8.630;2023-04-01T07:36:45;12.30;99.90
17938;DHT22;16051;53.024;8.630;2023-04-01T07:40:59;12.40;99.90
17938;DHT22;16051;53.024;8.630;2023-04-01T07:45:16;12.40;99.90
17938;DHT22;16051;53.024;8.630;2023-04-01T07:49:30;12.50;99.90
17938;DHT22;16051;53.024;8.630;2023-04-01T07:53:43;12.50;99.90
17938;DHT22;16051;53.024;8.630;2023-04-01T07:58:10;12.50;99.90
17938;DHT22;16051;53.024;8.630;2023-04-01T08:02:28;12.70;99.90
17938;DHT22;16051;53.024;8.630;2023-04-01T08:06:47;13.10;99.90
17938;DHT22;16051;53.024;8.630;2023-04-01T08:10:57;13.40;99.90
17938;DHT22;16051;53.024;8.630;2023-04-01T08:15:13;13.50;99.90
17938;DHT22;16051;53.024;8.630;2023-04-01T08:19:30;13.60;99.90
17938;DHT22;16051;53.024;8.630;2023-04-01T08:23:52;13.70;99.90
17938;DHT22;16051;53.024;8.630;2023-04-01T08:28:01;13.90;99.90
17938;DHT22;16051;53.024;8.630;2023-04-01T08:32:28;13.80;99.90
17938;DHT22;16051;53.024;8.630;2023-04-01T08:36:39;13.90;99.90
17938;DHT22;16051;53.024;8.630;2023-04-01T08:41:34;14.00;99.90
17938;DHT22;16051;53.024;8.630;2023-04-01T08:46:37;14.20;99.90
17938;DHT22;16051;53.024;8.630;2023-04-01T08:51:14;14.50;99.90
17938;DHT22;16051;53.024;8.630;2023-04-01T08:55:54;14.80;99.90
17938;DHT22;16051;53.024;8.630;2023-04-01T09:00:15;15.30;99.90
17938;DHT22;16051;53.024;8.630;2023-04-01T09:04:52;15.40;99.90
17938;DHT22;16051;53.024;8.630;2023-04-01T09:09:42;15.50;99.90
17938;DHT22;16051;53.024;8.630;2023-04-01T09:14:21;15.30;99.90
17938;DHT22;16051;53.024;8.630;2023-04-01T09:18:47;15.10;99.90
17938;DHT22;16051;53.024;8.630;2023-04-01T09:23:15;15.10;99.90
17938;DHT22;16051;53.024;8.630;2023-04-01T09:27:34;15.50;99.90
17938;DHT22;16051;53.024;8.630;2023-04-01T09:32:04;15.90;99.90
17938;DHT22;16051;53.024;8.630;2023-04-01T09:36:30;16.10;99.90
17938;DHT22;16051;53.024;8.630;2023-04-01T09:40:59;16.30;99.90
17938;DHT22;16051;53.024;8.630;2023-04-01T09:50:20;16.60;99.90
17938;DHT22;16051;53.024;8.630;2023-04-01T09:54:45;16.40;99.90
17938;DHT22;16051;53.024;8.630;2023-04-01T09:59:32;16.40;99.90
17938;DHT22;16051;53.024;8.630;2023-04-01T10:24:14;16.30;99.90
17938;DHT22;16051;53.024;8.630;2023-04-01T10:29:06;16.20;99.90
17938;DHT22;16051;53.024;8.630;2023-04-01T10:48:30;16.10;99.90
17938;DHT22;16051;53.024;8.630;2023-04-01T10:57:57;15.70;99.90
17938;DHT22;16051;53.024;8.630;2023-04-01T11:02:58;15.50;99.90
17938;DHT22;16051;53.024;8.630;2023-04-01T11:22:52;14.90;99.90
17938;DHT22;16051;53.024;8.630;2023-04-01T11:32:12;15.00;99.90
17938;DHT22;16051;53.024;8.630;2023-04-01T11:36:36;14.70;99.90
17938;DHT22;16051;53.024;8.630;2023-04-01T11:40:53;14.70;99.90
17938;DHT22;16051;53.024;8.630;2023-04-01T11:45:25;14.40;99.90
17938;DHT22;16051;53.024;8.630;2023-04-01T11:49:50;14.50;99.90
17938;DHT22;16051;53.024;8.630;2023-04-01T11:54:06;14.60;99.90
17938;DHT22;16051;53.024;8.630;2023-04-01T11:59:02;15.10;99.90
17938;DHT22;16051;53.024;8.630;2023-04-01T12:03:41;15.30;99.90
17938;DHT22;16051;53.024;8.630;2023-04-01T12:08:09;15.50;99.90
17938;DHT22;16051;53.024;8.630;2023-04-01T12:12:57;15.70;99.90
17938;DHT22;16051;53.024;8.630;2023-04-01T12:17:28;16.10;99.90
17938;DHT22;16051;53.024;8.630;2023-04-01T12:21:44;16.40;99.90
17938;DHT22;16051;53.024;8.630;2023-04-01T12:26:03;16.60;99.90
17938;DHT22;16051;53.024;8.630;2023-04-01T12:30:55;16.40;99.90
17938;DHT22;16051;53.024;8.630;2023-04-01T12:35:21;16.10;99.90
17938;DHT22;16051;53.024;8.630;2023-04-01T12:39:47;15.90;99.90
17938;DHT22;16051;53.024;8.630;2023-04-01T12:44:33;15.70;99.90
17938;DHT22;16051;53.024;8.630;2023-04-01T12:53:48;15.30;99.90
17938;DHT22;16051;53.024;8.630;2023-04-01T12:58:37;15.10;99.90
17938;DHT22;16051;53.024;8.630;2023-04-01T13:03:20;15.10;99.90
17938;DHT22;16051;53.024;8.630;2023-04-01T13:07:57;14.90;99.90
17938;DHT22;16051;53.024;8.630;2023-04-01T13:17:11;14.30;99.90
17938;DHT22;16051;53.024;8.630;2023-04-01T13:21:27;14.30;99.90
17938;DHT22;16051;53.024;8.630;2023-04-01T13:25:46;14.30;99.90
17938;DHT22;16051;53.024;8.630;2023-04-01T13:30:07;14.30;99.90
17938;DHT22;16051;53.024;8.630;2023-04-01T13:34:33;14.10;99.90
17938;DHT22;16051;53.024;8.630;2023-04-01T13:38:59;14.00;99.90
17938;DHT22;16051;53.024;8.630;2023-04-01T13:43:24;14.00;99.90
17938;DHT22;16051;53.024;8.630;2023-04-01T13:48:26;13.80;99.90
17938;DHT22;16051;53.024;8.630;2023-04-01T13:53:20;13.60;99.90
17938;DHT22;16051;53.024;8.630;2023-04-01T14:02:24;13.30;99.90
17938;DHT22;16051;53.024;8.630;2023-04-01T14:06:53;13.30;99.90
17938;DHT22;16051;53.024;8.630;2023-04-01T14:11:10;13.30;99.90
17938;DHT22;16051;53.024;8.630;2023-04-01T14:16:00;13.20;99.90
17938;DHT22;16051;53.024;8.630;2023-04-01T14:20:33;13.00;99.90
17938;DHT22;16051;53.024;8.630;2023-04-01T14:24:50;13.00;99.90
17938;DHT22;16051;53.024;8.630;2023-04-01T14:29:15;12.90;99.90
17938;DHT22;16051;53.024;8.630;2023-04-01T14:33:45;12.80;99.90
17938;DHT22;16051;53.024;8.630;2023-04-01T14:38:10;12.70;99.90
17938;DHT22;16051;53.024;8.630;2023-04-01T14:42:49;12.70;99.90
17938;DHT22;16051;53.024;8.630;2023-04-01T14:47:24;12.60;99.90
17938;DHT22;16051;53.024;8.630;2023-04-01T14:51:52;12.50;99.90
17938;DHT22;16051;53.024;8.630;2023-04-01T14:55:59;12.50;99.90
17938;DHT22;16051;53.024;8.630;2023-04-01T15:00:13;12.50;99.90
17938;DHT22;16051;53.024;8.630;2023-04-01T15:09:01;12.60;99.90
17938;DHT22;16051;53.024;8.630;2023-04-01T15:13:17;12.50;99.90
17938;DHT22;16051;53.024;8.630;2023-04-01T15:17:39;12.40;99.90
17938;DHT22;16051;53.024;8.630;2023-04-01T15:22:13;12.40;99.90
17938;DHT22;16051;53.024;8.630;2023-04-01T15:26:48;12.40;99.90
17938;DHT22;16051;53.024;8.630;2023-04-01T15:31:14;12.20;99.90
17938;DHT22;16051;53.024;8.630;2023-04-01T15:35:39;12.20;99.90
17938;DHT22;16051;53.024;8.630;2023-04-01T15:39:54;12.10;99.90
17938;DHT22;16051;53.024;8.630;2023-04-01T15:44:03;12.00;99.90
17938;DHT22;16051;53.024;8.630;2023-04-01T15:48:35;11.90;99.90
17938;DHT22;16051;53.024;8.630;2023-04-01T15:52:51;11.90;99.90
17938;DHT22;16051;53.024;8.630;2023-04-01T15:57:27;11.70;99.90
17938;DHT22;16051;53.024;8.630;2023-04-01T16:02:09;11.60;99.90
17938;DHT22;16051;53.024;8.630;2023-04-01T16:06:43;11.50;99.90
17938;DHT22;16051;53.024;8.630;2023-04-01T16:11:15;11.40;99.90
17938;DHT22;16051;53.024;8.630;2023-04-01T16:15:41;11.40;99.90
17938;DHT22;16051;53.024;8.630;2023-04-01T16:19:52;11.40;99.90
17938;DHT22;16051;53.024;8.630;2023-04-01T16:24:02;11.20;99.90
17938;DHT22;16051;53.024;8.630;2023-04-01T16:28:19;11.10;99.90
17938;DHT22;16051;53.024;8.630;2023-04-01T16:32:44;11.10;99.90
17938;DHT22;16051;53.024;8.630;2023-04-01T16:36:55;10.90;99.90
17938;DHT22;16051;53.024;8.630;2023-04-01T16:41:11;10.90;99.90
17938;DHT22;16051;53.024;8.630;2023-04-01T16:45:30;10.80;99.90
17938;DHT22;16051;53.024;8.630;2023-04-01T16:49:40;10.60;99.90
17938;DHT22;16051;53.024;8.630;2023-04-01T16:53:49;10.60;99.90
17938;DHT22;16051;53.024;8.630;2023-04-01T16:57:59;10.50;99.90
17938;DHT22;16051;53.024;8.630;2023-04-01T17:02:08;10.60;99.90
17938;DHT22;16051;53.024;8.630;2023-04-01T17:06:23;10.50;99.90
17938;DHT22;16051;53.024;8.630;2023-04-01T17:10:40;10.40;99.90
17938;DHT22;16051;53.024;8.630;2023-04-01T17:14:57;10.30;99.90
17938;DHT22;16051;53.024;8.630;2023-04-01T17:19:21;10.30;99.90
17938;DHT22;16051;53.024;8.630;2023-04-01T17:23:37;10.10;99.90
17938;DHT22;16051;53.024;8.630;2023-04-01T17:27:57;10.10;99.90
17938;DHT22;16051;53.024;8.630;2023-04-01T17:32:13;10.00;99.90
17938;DHT22;16051;53.024;8.630;2023-04-01T17:36:42;10.00;99.90
17938;DHT22;16051;53.024;8.630;2023-04-01T17:45:41;11.00;99.90
17938;DHT22;16051;53.024;8.630;2023-04-01T17:49:55;11.00;99.90
17938;DHT22;16051;53.024;8.630;2023-04-01T17:54:15;10.10;99.90
17938;DHT22;16051;53.024;8.630;2023-04-01T17:58:29;9.90;99.90
17938;DHT22;16051;53.024;8.630;2023-04-01T18:02:42;9.70;99.90
17938;DHT22;16051;53.024;8.630;2023-04-01T18:07:25;9.70;99.90
17938;DHT22;16051;53.024;8.630;2023-04-01T18:12:02;9.60;99.90
17938;DHT22;16051;53.024;8.630;2023-04-01T18:16:21;9.50;99.90
17938;DHT22;16051;53.024;8.630;2023-04-01T18:20:43;9.40;99.90
17938;DHT22;16051;53.024;8.630;2023-04-01T18:24:58;9.30;99.90
17938;DHT22;16051;53.024;8.630;2023-04-01T18:29:13;9.30;99.90
17938;DHT22;16051;53.024;8.630;2023-04-01T18:33:31;9.20;99.90
17938;DHT22;16051;53.024;8.630;2023-04-01T18:37:47;9.10;99.90
17938;DHT22;16051;53.024;8.630;2023-04-01T18:42:06;9.10;99.90
17938;DHT22;16051;53.024;8.630;2023-04-01T18:46:22;9.00;99.90
17938;DHT22;16051;53.024;8.630;2023-04-01T18:50:36;9.00;99.90
17938;DHT22;16051;53.024;8.630;2023-04-01T18:55:14;8.90;99.90
17938;DHT22;16051;53.024;8.630;2023-04-01T18:59:36;8.80;99.90
17938;DHT22;16051;53.024;8.630;2023-04-01T19:03:48;8.80;99.90
17938;DHT22;16051;53.024;8.630;2023-04-01T19:08:16;8.80;99.90
17938;DHT22;16051;53.024;8.630;2023-04-01T19:12:37;8.80;99.90
17938;DHT22;16051;53.024;8.630;2023-04-01T19:16:51;8.70;99.90
17938;DHT22;16051;53.024;8.630;2023-04-01T19:21:07;8.70;99.90
17938;DHT22;16051;53.024;8.630;2023-04-01T19:25:25;8.60;99.90
17938;DHT22;16051;53.024;8.630;2023-04-01T19:29:44;8.60;99.90
17938;DHT22;16051;53.024;8.630;2023-04-01T19:34:08;8.50;99.90
17938;DHT22;16051;53.024;8.630;2023-04-01T19:38:28;8.50;99.90
17938;DHT22;16051;53.024;8.630;2023-04-01T19:42:46;8.40;99.90
17938;DHT22;16051;53.024;8.630;2023-04-01T19:46:58;8.40;99.90
17938;DHT22;16051;53.024;8.630;2023-04-01T19:51:20;8.40;99.90
17938;DHT22;16051;53.024;8.630;2023-04-01T19:55:34;8.30;99.90
17938;DHT22;16051;53.024;8.630;2023-04-01T19:59:43;8.30;99.90
17938;DHT22;16051;53.024;8.630;2023-04-01T20:03:54;8.20;99.90
17938;DHT22;16051;53.024;8.630;2023-04-01T20:08:07;8.20;99.90
17938;DHT22;16051;53.024;8.630;2023-04-01T20:12:21;8.20;99.90
17938;DHT22;16051;53.024;8.630;2023-04-01T20:16:52;8.10;99.90
17938;DHT22;16051;53.024;8.630;2023-04-01T20:21:03;8.10;99.90
17938;DHT22;16051;53.024;8.630;2023-04-01T20:25:15;8.10;99.90
17938;DHT22;16051;53.024;8.630;2023-04-01T20:29:40;8.10;99.90
17938;DHT22;16051;53.024;8.630;2023-04-01T20:39:03;8.10;99.90
17938;DHT22;16051;53.024;8.630;2023-04-01T20:43:36;8.00;99.90
17938;DHT22;16051;53.024;8.630;2023-04-01T20:48:00;8.00;99.90
17938;DHT22;16051;53.024;8.630;2023-04-01T20:52:35;8.00;99.90
17938;DHT22;16051;53.024;8.630;2023-04-01T20:56:51;8.00;99.90
17938;DHT22;16051;53.024;8.630;2023-04-01T21:01:15;8.00;99.90
17938;DHT22;16051;53.024;8.630;2023-04-01T21:10:37;7.80;99.90
17938;DHT22;16051;53.024;8.630;2023-04-01T21:14:57;7.80;99.90
17938;DHT22;16051;53.024;8.630;2023-04-01T21:19:29;7.70;99.90
17938;DHT22;16051;53.024;8.630;2023-04-01T21:23:53;7.60;99.90
17938;DHT22;16051;53.024;8.630;2023-04-01T21:28:24;7.60;99.90
17938;DHT22;16051;53.024;8.630;2023-04-01T21:32:49;7.60;99.90
17938;DHT22;16051;53.024;8.630;2023-04-01T21:37:41;7.50;99.90
17938;DHT22;16051;53.024;8.630;2023-04-01T21:42:06;7.50;99.90
17938;DHT22;16051;53.024;8.630;2023-04-01T21:46:37;7.40;99.90
17938;DHT22;16051;53.024;8.630;2023-04-01T21:51:40;7.40;99.90
17938;DHT22;16051;53.024;8.630;2023-04-01T21:56:29;7.30;99.90
17938;DHT22;16051;53.024;8.630;2023-04-01T22:01:34;7.30;99.90
17938;DHT22;16051;53.024;8.630;2023-04-01T22:05:56;7.30;99.90
17938;DHT22;16051;53.024;8.630;2023-04-01T22:10:12;7.20;99.90
17938;DHT22;16051;53.024;8.630;2023-04-01T22:14:37;7.20;99.90
17938;DHT22;16051;53.024;8.630;2023-04-01T22:18:48;7.10;99.90
17938;DHT22;16051;53.024;8.630;2023-04-01T22:23:16;7.20;99.90
17938;DHT22;16051;53.024;8.630;2023-04-01T22:27:30;7.00;99.90
17938;DHT22;16051;53.024;8.630;2023-04-01T22:31:41;7.00;99.90
17938;DHT22;16051;53.024;8.630;2023-04-01T22:35:51;7.00;99.90
17938;DHT22;16051;53.024;8.630;2023-04-01T22:40:16;6.90;99.90
17938;DHT22;16051;53.024;8.630;2023-04-01T22:44:36;6.80;99.90
17938;DHT22;16051;53.024;8.630;2023-04-01T22:48:54;6.90;99.90
17938;DHT22;16051;53.024;8.630;2023-04-01T22:53:04;6.80;99.90
17938;DHT22;16051;53.024;8.630;2023-04-01T22:57:28;6.70;99.90
17938;DHT22;16051;53.024;8.630;2023-04-01T23:01:52;6.70;99.90
17938;DHT22;16051;53.024;8.630;2023-04-01T23:06:00;6.60;99.90
17938;DHT22;16051;53.024;8.630;2023-04-01T23:10:07;6.50;99.90
17938;DHT22;16051;53.024;8.630;2023-04-01T23:14:35;6.40;99.90
17938;DHT22;16051;53.024;8.630;2023-04-01T23:18:51;6.30;99.90
17938;DHT22;16051;53.024;8.630;2023-04-01T23:23:07;6.20;99.90
17938;DHT22;16051;53.024;8.630;2023-04-01T23:27:28;6.10;99.90
17938;DHT22;16051;53.024;8.630;2023-04-01T23:31:37;6.00;99.90
17938;DHT22;16051;53.024;8.630;2023-04-01T23:35:46;5.90;99.90
17938;DHT22;16051;53.024;8.630;2023-04-01T23:39:53;5.80;99.90
17938;DHT22;16051;53.024;8.630;2023-04-01T23:43:59;5.70;99.90
17938;DHT22;16051;53.024;8.630;2023-04-01T23:48:13;5.70;99.90
17938;DHT22;16051;53.024;8.630;2023-04-01T23:52:21;5.60;99.90
17938;DHT22;16051;53.024;8.630;2023-04-01T23:56:39;5.60;99.90
